createdAt,value
2019-03-01T00:02:18.993Z,8.93
2019-03-01T00:07:59.164Z,8.68
2019-03-01T00:13:23.955Z,8.58
2019-03-01T00:18:50.384Z,9.12
2019-03-01T00:24:13.822Z,9.06
2019-03-01T00:29:49.713Z,9.04
2019-03-01T00:34:56.476Z,9.06
2019-03-01T00:40:18.232Z,9.01
2019-03-01T00:45:21.794Z,8.86
2019-03-01T00:50:25.455Z,8.91
2019-03-01T00:55:29.045Z,8.81
2019-03-01T01:00:38.721Z,8.66
2019-03-01T01:05:42.382Z,8.41
2019-03-01T01:10:46.043Z,8.61
2019-03-01T01:15:49.682Z,8.36
2019-03-01T01:20:53.323Z,7.96
2019-03-01T01:25:56.903Z,7.94
2019-03-01T01:31:00.559Z,8.02
2019-03-01T01:36:04.823Z,8.03
2019-03-01T01:41:08.504Z,8.07
2019-03-01T01:46:12.094Z,7.76
2019-03-01T01:51:16.372Z,7.67
2019-03-01T01:56:19.943Z,7.47
2019-03-01T02:01:23.573Z,7.38
2019-03-01T02:06:27.512Z,7.61
2019-03-01T02:11:31.101Z,7.30
2019-03-01T02:16:34.775Z,7.19
2019-03-01T02:21:38.363Z,7.30
2019-03-01T02:26:41.985Z,7.22
2019-03-01T02:31:48.945Z,6.99
2019-03-01T02:36:52.624Z,7.09
2019-03-01T02:41:56.156Z,7.08
2019-03-01T02:46:59.844Z,7.40
2019-03-01T02:52:03.606Z,7.06
2019-03-01T02:57:07.269Z,7.41
2019-03-01T03:02:10.854Z,7.17
2019-03-01T03:07:31.423Z,6.91
2019-03-01T03:12:35.113Z,7.51
2019-03-01T03:17:38.718Z,7.70
2019-03-01T03:22:42.334Z,7.89
2019-03-01T03:27:45.904Z,7.64
2019-03-01T03:32:49.602Z,7.84
2019-03-01T03:37:53.131Z,7.76
2019-03-01T03:42:56.793Z,7.49
2019-03-01T03:48:00.393Z,7.87
2019-03-01T03:53:04.130Z,7.62
2019-03-01T03:58:08.014Z,7.38
2019-03-01T04:03:11.789Z,7.26
2019-03-01T04:08:15.523Z,7.27
2019-03-01T04:13:19.335Z,7.62
2019-03-01T04:18:23.020Z,7.50
2019-03-01T04:23:26.969Z,7.59
2019-03-01T04:28:30.825Z,7.38
2019-03-01T04:33:34.591Z,7.37
2019-03-01T04:38:38.251Z,7.69
2019-03-01T04:43:42.217Z,7.27
2019-03-01T04:48:48.474Z,7.11
2019-03-01T04:53:52.251Z,7.76
2019-03-01T04:58:56.028Z,7.63
2019-03-01T05:03:59.764Z,7.55
2019-03-01T05:09:05.190Z,7.79
2019-03-01T05:14:09.000Z,7.75
2019-03-01T05:19:12.818Z,7.88
2019-03-01T05:24:17.190Z,7.52
2019-03-01T05:29:20.928Z,7.80
2019-03-01T05:34:24.726Z,7.82
2019-03-01T05:39:28.610Z,7.80
2019-03-01T05:44:32.698Z,7.70
2019-03-01T05:49:36.506Z,7.46
2019-03-01T05:54:40.221Z,7.79
2019-03-01T05:59:43.989Z,7.16
2019-03-01T06:04:54.124Z,7.38
2019-03-01T06:10:16.020Z,7.44
2019-03-01T06:15:22.835Z,7.13
2019-03-01T06:20:44.719Z,7.60
2019-03-01T06:25:57.530Z,7.59
2019-03-01T06:31:10.637Z,7.40
2019-03-01T06:36:34.026Z,7.48
2019-03-01T06:42:05.511Z,8.00
2019-03-01T06:47:31.332Z,7.97
2019-03-01T06:52:35.106Z,7.94
2019-03-01T06:57:38.981Z,7.90
2019-03-01T07:02:47.368Z,8.14
2019-03-01T07:07:51.104Z,8.16
2019-03-01T07:12:54.896Z,7.90
2019-03-01T07:17:58.723Z,8.12
2019-03-01T07:23:02.435Z,8.22
2019-03-01T07:28:06.197Z,8.08
2019-03-01T07:33:09.851Z,7.96
2019-03-01T07:38:13.634Z,7.96
2019-03-01T07:43:17.466Z,7.57
2019-03-01T07:48:21.210Z,7.62
2019-03-01T07:53:24.976Z,7.89
2019-03-01T07:58:28.647Z,8.04
2019-03-01T08:03:32.460Z,8.06
2019-03-01T08:08:38.823Z,7.99
2019-03-01T08:13:41.602Z,8.05
2019-03-01T08:18:45.324Z,7.79
2019-03-01T08:23:50.560Z,7.68
2019-03-01T08:28:58.309Z,7.96
2019-03-01T08:34:00.272Z,8.28
2019-03-01T08:39:05.880Z,8.00
2019-03-01T08:44:10.677Z,7.96
2019-03-01T08:49:14.623Z,7.54
2019-03-01T08:54:18.596Z,7.84
2019-03-01T08:59:22.444Z,7.61
2019-03-01T09:04:26.084Z,7.68
2019-03-01T09:09:29.840Z,7.71
2019-03-01T09:14:33.527Z,7.63
2019-03-01T09:19:37.365Z,7.80
2019-03-01T09:24:41.043Z,7.73
2019-03-01T09:29:44.811Z,7.10
2019-03-01T09:34:51.110Z,6.74
2019-03-01T09:39:54.942Z,6.50
2019-03-01T09:44:58.614Z,7.38
2019-03-01T09:50:02.438Z,7.54
2019-03-01T09:55:08.640Z,8.12
2019-03-01T10:00:18.680Z,8.02
2019-03-01T10:05:22.547Z,7.88
2019-03-01T10:10:28.933Z,7.74
2019-03-01T10:15:33.147Z,17.38
2019-03-01T10:20:37.172Z,20.89
2019-03-01T10:25:41.328Z,21.78
2019-03-01T10:30:45.399Z,22.09
2019-03-01T10:35:49.428Z,22.11
2019-03-01T10:40:53.976Z,22.01
2019-03-01T10:45:58.018Z,22.00
2019-03-01T10:51:02.040Z,21.85
2019-03-01T10:56:06.155Z,21.62
2019-03-01T11:01:10.100Z,21.38
2019-03-01T11:06:14.310Z,21.21
2019-03-01T11:11:18.588Z,21.08
2019-03-01T11:16:22.478Z,20.89
2019-03-01T11:21:26.616Z,20.89
2019-03-01T11:26:30.588Z,20.86
2019-03-01T11:31:34.571Z,21.04
2019-03-01T11:36:38.517Z,21.51
2019-03-01T11:41:42.758Z,21.98
2019-03-01T11:46:46.568Z,22.45
2019-03-01T11:51:50.597Z,22.99
2019-03-01T11:56:54.254Z,23.46
2019-03-01T12:01:57.871Z,23.84
2019-03-01T12:07:01.498Z,24.41
2019-03-01T12:12:05.731Z,24.57
2019-03-01T12:17:09.369Z,24.72
2019-03-01T12:22:17.074Z,24.97
2019-03-01T12:27:18.227Z,25.11
2019-03-01T12:32:21.816Z,25.15
2019-03-01T12:37:25.464Z,25.32
2019-03-01T12:42:29.019Z,25.36
2019-03-01T12:47:32.595Z,25.62
2019-03-01T12:52:36.222Z,25.85
2019-03-01T12:57:40.044Z,25.85
2019-03-01T13:02:43.661Z,26.00
2019-03-01T13:07:47.277Z,26.00
2019-03-01T13:12:50.897Z,25.72
2019-03-01T13:17:54.482Z,25.59
2019-03-01T13:23:01.023Z,25.36
2019-03-01T13:28:03.517Z,25.10
2019-03-01T13:33:07.121Z,25.14
2019-03-01T13:38:10.761Z,25.40
2019-03-01T13:43:14.943Z,25.69
2019-03-01T13:53:55.289Z,25.85
2019-03-01T13:58:59.577Z,25.56
2019-03-01T14:04:04.276Z,23.80
2019-03-01T14:09:11.385Z,22.13
2019-03-01T14:14:14.982Z,21.07
2019-03-01T14:19:18.865Z,20.57
2019-03-01T14:24:22.726Z,20.16
2019-03-01T14:29:25.581Z,12.05
2019-03-01T14:34:29.176Z,8.75
2019-03-01T14:39:32.710Z,9.11
2019-03-01T14:44:36.266Z,8.38
2019-03-01T14:49:39.933Z,8.26
2019-03-01T14:54:45.148Z,8.76
2019-03-01T14:59:51.984Z,8.33
2019-03-01T15:04:55.516Z,8.44
2019-03-01T15:09:59.122Z,8.56
2019-03-01T15:15:02.673Z,8.52
2019-03-01T15:20:09.378Z,8.54
2019-03-01T15:25:13.040Z,8.45
2019-03-01T15:30:17.713Z,8.35
2019-03-01T15:35:21.232Z,8.28
2019-03-01T15:40:27.857Z,8.08
2019-03-01T15:45:30.478Z,7.93
2019-03-01T15:50:34.194Z,8.01
2019-03-01T15:55:37.752Z,8.02
2019-03-01T16:00:41.440Z,8.10
2019-03-01T16:05:45.105Z,8.34
2019-03-01T16:10:48.681Z,7.99
2019-03-01T16:15:52.211Z,8.01
2019-03-01T16:20:55.826Z,7.78
2019-03-01T16:26:00.002Z,8.14
2019-03-01T16:31:03.574Z,8.12
2019-03-01T16:36:08.801Z,8.07
2019-03-01T16:41:12.361Z,7.71
2019-03-01T16:46:15.934Z,7.93
2019-03-01T16:51:19.628Z,7.87
2019-03-01T16:56:23.241Z,7.74
2019-03-01T17:01:29.802Z,7.63
2019-03-01T17:06:32.578Z,7.79
2019-03-01T17:11:37.689Z,7.74
2019-03-01T17:16:41.453Z,7.98
2019-03-01T17:21:50.708Z,7.94
2019-03-01T17:26:50.324Z,7.92
2019-03-01T17:31:53.877Z,7.86
2019-03-01T17:36:57.455Z,7.88
2019-03-01T17:42:01.524Z,7.87
2019-03-01T17:47:06.061Z,7.91
2019-03-01T17:52:10.710Z,7.84
2019-03-01T17:57:14.259Z,7.84
2019-03-01T18:02:17.816Z,7.81
2019-03-01T18:07:23.719Z,8.17
2019-03-01T18:12:26.746Z,7.81
2019-03-01T18:17:33.005Z,7.78
2019-03-01T18:22:35.634Z,8.00
2019-03-01T18:27:39.203Z,8.09
2019-03-01T18:32:45.060Z,7.69
2019-03-01T18:37:51.442Z,8.06
2019-03-01T18:42:53.627Z,8.07
2019-03-01T18:47:57.175Z,8.06
2019-03-01T18:53:03.617Z,8.18
2019-03-01T18:58:07.083Z,8.16
2019-03-01T19:03:10.639Z,8.20
2019-03-01T19:08:14.193Z,8.10
2019-03-01T19:13:20.791Z,8.14
2019-03-01T19:18:23.137Z,7.98
2019-03-01T19:23:29.350Z,7.63
2019-03-01T19:28:32.169Z,7.88
2019-03-01T19:33:37.869Z,7.84
2019-03-01T19:38:41.027Z,7.35
2019-03-01T19:43:45.676Z,7.11
2019-03-01T19:48:50.848Z,7.03
2019-03-01T19:53:57.342Z,6.71
2019-03-01T19:58:59.674Z,6.23
2019-03-01T20:04:03.252Z,6.46
2019-03-01T20:09:08.480Z,6.55
2019-03-01T20:14:12.077Z,6.18
2019-03-01T20:19:17.026Z,6.10
2019-03-01T20:24:21.157Z,5.87
2019-03-01T20:29:24.887Z,5.60
2019-03-01T20:34:28.577Z,5.67
2019-03-01T20:39:33.235Z,5.29
2019-03-01T20:44:36.959Z,5.83
2019-03-01T20:49:40.599Z,5.60
2019-03-01T20:54:44.684Z,5.65
2019-03-01T20:59:50.562Z,5.75
2019-03-01T21:04:53.826Z,5.76
2019-03-01T21:09:57.541Z,5.20
2019-03-01T21:15:01.995Z,5.74
2019-03-01T21:20:11.553Z,5.78
2019-03-01T21:25:19.956Z,5.86
2019-03-01T21:30:33.947Z,5.75
2019-03-01T21:35:37.495Z,5.76
2019-03-01T21:40:41.490Z,5.68
2019-03-01T21:45:45.025Z,5.50
2019-03-01T21:50:48.737Z,5.62
2019-03-01T21:55:52.386Z,5.46
2019-03-01T22:00:55.927Z,5.42
2019-03-01T22:05:59.473Z,5.49
2019-03-01T22:11:03.109Z,5.35
2019-03-01T22:16:06.690Z,5.49
2019-03-01T22:21:10.255Z,5.26
2019-03-01T22:26:15.979Z,5.26
2019-03-01T22:31:19.234Z,5.23
2019-03-01T22:36:22.845Z,5.16
2019-03-01T22:41:26.421Z,5.17
2019-03-01T22:46:29.950Z,5.05
2019-03-01T22:51:33.554Z,5.09
2019-03-01T22:56:37.099Z,5.17
2019-03-01T23:01:42.381Z,5.14
2019-03-01T23:06:47.617Z,5.12
2019-03-01T23:11:51.252Z,4.98
2019-03-01T23:16:55.635Z,4.83
2019-03-01T23:21:59.266Z,4.94
2019-03-01T23:27:03.383Z,4.73
2019-03-01T23:32:06.949Z,4.79
2019-03-01T23:37:10.527Z,4.72
2019-03-01T23:42:14.110Z,4.71
2019-03-01T23:47:17.676Z,4.67
2019-03-01T23:52:22.794Z,4.86
2019-03-01T23:57:26.527Z,4.61
